GIH weather

La Giralda Airport
Huamanguillo, Tabasco, Mexico

Public forecast

Using degrees Celsius for public forecast. Weather courtesy of forecast.io.

METAR (pilot weather report)

Closest report is Carlos Rovirosa Pérez International Airport, 37.4 nm (69.3 km) ENE. Retrieved 2019/06/16 16:41 UTC (0 seconds ago):

MMVA 161641Z 00000KT 7SM BKN200 32/24 A2987 RMK 8/007 CU CUFRA

TAF (pilot weather forecast)

Forecast is more than 6 hours old.

Closest forecast is Carlos Rovirosa Pérez International Airport, 37.4 nm (69.3 km) ENE. Retrieved 2019/06/16 06:14 UTC (10 hours ago):

TAF MMVA 160507Z 1606/1706 06005KT P6SM SCT020 BKN080 TEMPO 1610/1614 3SM BR BKN010 FM161600 06010KT P6SM SCT020 SCT080 FM162300 06008KT P6SM SCT020CB BKN080 TEMPO 1623/1703 3SM TSRA